EGPI/ILY METAR and TAF weather

Enter ICAO airport designator
Station Type Date Time Source
EGPI METAR 2018/10/16 21:20 UTC NOAA

EGPI 162120Z AUTO 19010KT 160V230 9999 FEW023/// SCT030/// 12/11 Q1008


Station Type Date Time Source
EGPI Decoded METAR 2018/10/16 21:20 UTC NOAA

Islay, United Kingdom (EGPI) 55-40-55N 006-15-24W
Oct 16, 2018 - 05:20 PM EDT / 2018.10.16 2120 UTC
Wind: from the S (190 degrees) at 12 MPH (10 KT) (direction variable):0
Visibility: greater than 7 mile(s):0
Sky conditions: partly cloudy
Temperature: 53 F (12 C)
Dew Point: 51 F (11 C)
Relative Humidity: 93%
Pressure (altimeter): 29.77 in. Hg (1008 hPa)
ob: EGPI 162120Z AUTO 19010KT 160V230 9999 FEW023/// SCT030/// 12/11 Q1008
cycle: 21

Station Type Date Time Source
EGPI TAF UTC NOAA

Error!


Example: see airport list